This is the latest recevied weather packets stored in our database for station/object WX1N. If no packets are shown the sender has not sent any weather packets the latest 1 day(s).
| Time | Temp. | Humidity | Pressure | Rain* | Wind** | Luminosity | Snow |
|---|---|---|---|---|---|---|---|
| 1778048103 | 15° C | 80% | 1007 hPa | 0 mm | - | - | - |
| 1778047503 | 16.11° C | 76% | 1007.1 hPa | 0 mm | - | - | - |
| 1778046903 | 16.67° C | 75% | 1007.1 hPa | 0 mm | - | - | - |
| 1778046304 | 16.67° C | 74% | 1007.2 hPa | 0 mm | - | - | - |
| 1778045403 | 17.22° C | 73% | 1007.2 hPa | 0 mm | - | - | - |
| 1778044804 | 17.78° C | 72% | 1007.1 hPa | 0 mm | - | - | - |
| 1778041803 | 17.22° C | 80% | 1007.1 hPa | 0 mm | - | - | - |
| 1778041204 | 16.67° C | 81% | 1007 hPa | 0 mm | - | - | - |
| 1778040604 | 17.22° C | 80% | 1006.8 hPa | 0 mm | - | - | - |
| 1778040303 | 17.78° C | 78% | 1006.6 hPa | 0 mm | - | - | - |
| 1778039704 | 17.78° C | 79% | 1006.7 hPa | 0 mm | - | - | - |
| 1778037603 | 15.56° C | 86% | 1006.9 hPa | 0 mm | - | - | - |
| 1778036703 | 15° C | 85% | 1006.8 hPa | 0 mm | - | - | - |
| 1778036103 | 15° C | 85% | 1007 hPa | 0 mm | - | - | - |
| 1778035503 | 15° C | 85% | 1006.8 hPa | 0 mm | - | - | - |
| 1778034903 | 15° C | 85% | 1006.8 hPa | 0 mm | - | - | - |
| 1778034304 | 14.44° C | 86% | 1006.7 hPa | 0 mm | - | - | - |
| 1778033704 | 15° C | 86% | 1006.8 hPa | 0 mm | - | - | - |
| 1778031903 | 15.56° C | 87% | 1006.7 hPa | 0 mm | - | - | - |
| 1778031304 | 15.56° C | 85% | 1006.4 hPa | 0 mm | - | - | - |
| 1778030704 | 16.11° C | 85% | 1006.3 hPa | 0 mm | - | - | - |
| 1778030104 | 16.67° C | 83% | 1006.1 hPa | 0 mm | - | - | - |
| 1778027704 | 16.67° C | 85% | 1006 hPa | 0 mm | - | - | - |
| 1778027404 | 16.67° C | 86% | 1006 hPa | 0 mm | - | - | - |
| 1778025304 | 16.67° C | 86% | 1005.8 hPa | 0 mm | - | - | - |
* Rain latest hour (hover to see other rain measurements)
** Current wind speed in m/s (hover to see current wind gust speed)